Tiempo atmosférico en la estación meteorológica de Lleida, Lleida (192 m.)



Fecha
DESCASC
Temp. máxima en grados centígrados (hora)
DESCASC
Temp. mínima en grados centígrados (hora)
DESCASC
Temp. media en grados centígrados
DESCASC
Racha de viento máxima en m/sg (hora)
DESCASC
Velocidad máxima media en intervalos de 10 minutos(hora)
DESCASC
Precipitaciones diarias en mm
DESCASC
Precipitaciones de 00:00 a 06:00 en mm
DESCASC
Precipitaciones de 06:00 a 12:00 en mm
DESCASC
Precipitaciones de 12:00 a 18:00 en mm
DESCASC
Precipitaciones de 18:00 a 24:00 en mm
DESCASC
11-12-2019 12.8 (16:00) 1.4 (08:20) 7.1 16.11 (18:30) 9.72 (19:30) 0 0 0 0 0
10-12-2019 13.5 (15:40) 5.2 (23:30) 9.3 13.61 (01:50) 8.61 (01:50) 0 0 0 0 0
09-12-2019 14.1 (14:20) 2.8 (05:50) 8.5 20.83 (14:00) 12.78 (14:10) 0.2 0.2 0 0 0
08-12-2019 7.5 (21:30) 6.2 (00:00) 6.8 4.17 (08:50) 2.5 (08:50) 0 0 0 0 0
07-12-2019 7.4 (22:30) 4.5 (00:00) 6 3.06 (06:30) 2.22 (06:30) 0.2 0 0.2 0 0
06-12-2019 14.2 (15:30) 5.6 (00:00) 9.9 3.61 (15:20) 2.5 (15:20) 0.2 0 0.2 0 0
05-12-2019 11.5 (00:30) 8.8 (00:00) 10.2 10.56 (00:30) 5.28 (00:20) 12 6.2 4.6 1 0.2
04-12-2019 10.7 (22:30) 2.4 (00:00) 6.5 11.94 (23:59) 5 (23:59) 6.6 0 1.2 3.2 2.2
03-12-2019 7.6 (13:00) 0.4 (00:00) 4 3.33 (13:00) 1.94 (00:40) 0 0 0 0 0
02-12-2019 12.1 (16:00) 2.1 (00:00) 7.1 4.17 (14:40) 2.78 (15:20) 0 0 0 0 0
01-12-2019 14.9 (15:40) 5.5 (00:00) 10.2 6.11 (00:20) 3.61 (00:20) 0 0 0 0 0
30-11-2019 16.2 (16:00) 5.1 (00:00) 10.7 6.67 (22:30) 3.61 (22:30) 0 0 0 0 0
29-11-2019 19.1 (13:40) 7.5 (00:00) 13.3 12.78 (14:20) 7.22 (13:40) 0 0 0 0 0
28-11-2019 18.1 (15:40) 5 (00:00) 11.6 7.5 (12:10) 4.72 (12:30) 0 0 0 0 0
27-11-2019 17.2 (15:10) 5.1 (00:00) 11.2 10.28 (12:10) 6.11 (11:20) 0 0 0 0 0
26-11-2019 15.5 (16:30) 3.4 (00:00) 9.5 4.17 (21:10) 2.78 (19:50) 0.2 0 0 0 0.2
25-11-2019 16.8 (16:10) 3.6 (00:00) 10.2 5.83 (14:10) 3.61 (14:10) 0 0 0 0 0
24-11-2019 14.1 (15:20) 5.4 (00:00) 9.8 13.61 (05:00) 8.33 (02:30) 0 0 0 0 0
23-11-2019 12 (00:00) 6.8 (00:00) 9.4 19.44 (14:00) 11.11 (18:50) 0.4 0.4 0 0 0
22-11-2019 14.3 (14:10) 4 (00:00) 9.2 12.78 (23:50) 5.28 (23:59) 7.8 0 0 2.2 5.6
21-11-2019 13.7 (15:10) 2.1 (00:00) 7.9 4.72 (22:10) 3.06 (22:10) 0 0 0 0 0
20-11-2019 11.8 (16:00) -0.3 (00:00) 5.8 4.72 (00:20) 3.06 (00:10) 0 0 0 0 0
19-11-2019 10.9 (16:20) -1.6 (-00:0) 4.6 4.44 (15:20) 2.78 (23:40) 0 0 0 0 0
18-11-2019 12.2 (15:50) 2.5 (00:00) 7.3 5.83 (21:30) 3.33 (20:50) 0 0 0 0 0
17-11-2019 12.9 (15:00) 1.8 (00:00) 7.3 9.17 (13:00) 5.83 (13:50) 0 0 0 0 0
16-11-2019 8.9 (15:40) 0.2 (00:00) 4.5 7.5 (20:30) 4.72 (20:30) 0 0 0 0 0
15-11-2019 9.4 (15:20) 0.6 (00:00) 5 9.17 (18:00) 4.72 (18:20) 0 0 0 0 0

Gráficas

Temp. máximas Temp. mínimas Temp. medias Precipitaciones Rachas de viento máximas Velocidades máximas media en intervalos de 10 minutos

Datos horarios

Fecha y hora oficial Temperatura (ºC) Velocidad del viento (km/h) Dirección del viento Racha (km/h) Dirección de racha Precipitación (mm) Presión (hPa) Tendencia (hPa) Humedad (%)
2019-12-14 23:00:00 8.8 6 Oeste 12 Oeste 0 991.9 0.1 74
2019-12-14 22:00:00 9.3 7 Oeste 11 Oeste 0 992 0.4 74
2019-12-14 21:00:00 9.6 6 Oeste 10 Sudoeste 0 991.9 0.8 74
2019-12-14 20:00:00 11.1 8 Oeste 13 Oeste 0 991.8 0.7 69
2019-12-14 19:00:00 11.3 4 Sudoeste 12 Sudoeste 0 991.6 0.5 70
2019-12-14 18:00:00 13.3 9 Oeste 20 Oeste 0 991.1 0 62
2019-12-14 17:00:00 15.3 13 Sudoeste 24 Oeste 0 991.1 0.1 56
2019-12-14 16:00:00 16.5 15 Sudoeste 26 Sudoeste 0 991.1 -0.3 52
2019-12-14 15:00:00 16.9 15 Oeste 37 Sudoeste 0 991.1 -0.8 50
2019-12-14 14:00:00 16.4 22 Oeste 39 Oeste 0 991 -1.1 49
2019-12-14 13:00:00 15.6 21 Oeste 38 Oeste 0 991.4 -0.1 53
2019-12-14 12:00:00 15.2 21 Oeste 33 Oeste 0 991.9 1.2 55
2019-12-14 11:00:00 14.4 17 Oeste 40 Oeste 0 992.1 2.5 58
2019-12-14 10:00:00 13 18 Oeste 37 Oeste 0 991.5 2.9 62
2019-12-14 09:00:00 11.9 22 Sudoeste 32 Oeste 0 990.7 2.6 65
2019-12-14 08:00:00 11.3 12 Oeste 27 Oeste 0 989.6 1.7 69
2019-12-14 07:00:00 11.8 13 Oeste 36 Oeste 0 988.6 0.7 68
2019-12-14 06:00:00 12.6 17 Sudoeste 32 Oeste 0 988.1 0.8 66
2019-12-14 05:00:00 12.8 14 Sudoeste 33 Oeste 0 987.9 0.9 67
2019-12-14 04:00:00 13.2 23 Oeste 47 Oeste 0 987.9 1.5 68
2019-12-14 03:00:00 13.5 24 Oeste 40 Sudoeste 0 987.3 1.4 70
2019-12-14 02:00:00 14.2 19 Sudoeste 39 Oeste 0 987 2.3 69
2019-12-14 01:00:00 14.2 18 Oeste 34 Oeste 0 986.4 2.3 71
2019-12-14 00:00:00 14.6 18 Oeste 50 Oeste 0 985.9 2.2 69
2019-12-13 23:00:00 15.1 30 Oeste 55 Oeste 0 984.7 1.2 67
2019-12-13 22:00:00 15.3 36 Oeste 62 Oeste 0 984.1 0.8 68
2019-12-13 21:00:00 15 25 Oeste 58 Oeste 0 983.7 1.2 73
2019-12-13 20:00:00 15.4 35 Oeste 66 Oeste 0 983.5 1.8 71
2019-12-13 19:00:00 15.6 37 Oeste 66 Oeste 0 983.3 2.3 68
2019-12-13 18:00:00 15.7 39 Oeste 67 Oeste 0 982.5 2.6 67
2019-12-13 17:00:00 16.6 37 Oeste 73 Oeste 0 981.7 1.9 62
2019-12-13 16:00:00 17.5 44 Oeste 79 Noroeste 0 981 0.5 60
2019-12-13 15:00:00 18 45 Oeste 89 Noroeste 0 979.9 -0.9 58
2019-12-13 14:00:00 18.1 49 Oeste 79 Oeste 0 979.8 -1.1 58
2019-12-13 13:00:00 17.6 42 Oeste 79 Oeste 0 980.5 0.4 62
2019-12-13 12:00:00 16.8 45 Oeste 72 Oeste 0 980.8 1.1 66
2019-12-13 11:00:00 15.9 38 Oeste 69 Oeste 0 980.9 1.7 71
2019-12-13 10:00:00 14.5 34 Oeste 57 Oeste 0 980.1 1.1 77
2019-12-13 09:00:00 12.4 17 Oeste 31 Oeste 0 979.7 0.4 85
2019-12-13 08:00:00 9.9 11 Sudoeste 19 Sudoeste 0 979.2 -0.9 94
2019-12-13 07:00:00 8.7 11 Sudoeste 17 Sudoeste 0 979 -1.3 95
2019-12-13 06:00:00 7.5 7 Sudoeste 12 Sudoeste 0 979.3 -2.2 96
2019-12-13 05:00:00 7 6 Oeste 16 Sudoeste 0 980.1 -1.2 95
2019-12-13 04:00:00 7 8 Sudoeste 12 Sudoeste 0.2 980.3 -1.5 95
2019-12-13 03:00:00 7.5 0 Calma 8 Oeste 0 981.5 -0.5 95
2019-12-13 02:00:00 7.5 4 Sudoeste 8 Sudoeste 0 981.3 -1.4 94
2019-12-13 01:00:00 7.7 5 Sudoeste 9 Sudoeste 0.2 981.8 -1.1 94
2019-12-13 00:00:00 7.7 6 Sudoeste 10 Sudoeste 0 982 -1.6 93
2019-12-12 23:00:00 7.8 5 Oeste 8 Oeste 0 982.7 -1.7 94
2019-12-12 22:00:00 7.9 6 Sudoeste 11 Oeste 0 982.9 -2.1 94
2019-12-12 21:00:00 8 7 Sudoeste 17 Sudoeste 0.2 983.6 -2 93
2019-12-12 20:00:00 8.2 9 Sudoeste 15 Sudoeste 0.4 984.4 -1.9 93
2019-12-12 19:00:00 8.3 9 Sudoeste 17 Sudoeste 1 985 -2 91
2019-12-12 18:00:00 8.9 11 Sudoeste 28 Oeste 1.2 985.6 -2.1 86
2019-12-12 17:00:00 10.9 20 Oeste 35 Oeste 0 986.3 -2.4 68
2019-12-12 16:00:00 11.2 13 Oeste 19 Oeste 0 987 -2.9 66
2019-12-12 15:00:00 11.7 11 Oeste 23 Oeste 0 987.7 -3.8 63
2019-12-12 14:00:00 11.7 12 Oeste 29 Oeste 0 988.7 -3.6 58
2019-12-12 13:00:00 11.8 20 Oeste 36 Oeste 0 989.9 -2.3 55
2019-12-12 12:00:00 11.6 19 Oeste 35 Sudoeste 0 991.5 -0.7 55
2019-12-12 11:00:00 10.7 17 Sudoeste 30 Oeste 0 992.3 0 62
2019-12-12 10:00:00 9.2 15 Sudoeste 30 Oeste 0 992.2 -0.2 66
2019-12-12 09:00:00 7.6 11 Sudoeste 25 Oeste 0 992.2 -0.4 70
2019-12-12 08:00:00 7.8 10 Oeste 26 Oeste 0 992.3 -0.8 69
2019-12-12 07:00:00 8 15 Oeste 36 Oeste 0 992.4 -1.3 69
2019-12-12 06:00:00 7.1 17 Oeste 28 Oeste 0 992.6 -1.2 71
2019-12-12 05:00:00 6.5 14 Oeste 25 Sudoeste 0 993.1 -0.9 74
2019-12-12 04:00:00 6.3 13 Sudoeste 19 Sudoeste 0 993.7 -0.6 73
2019-12-12 03:00:00 7.3 15 Sudoeste 30 Sudoeste 0 993.8 -1 69
2019-12-12 02:00:00 7.3 9 Oeste 24 Oeste 0 994 -0.7 70
2019-12-12 01:00:00 7.7 14 Oeste 32 Oeste 0 994.3 -0.5 69
2019-12-12 00:00:00 7.3 12 Oeste 45 Sudoeste 0 994.8 -0.1 70
2019-12-11 23:00:00 7.1 14 Sudoeste 36 Oeste 0 994.7 0.3 67
2019-12-11 22:00:00 8.9 26 Oeste 48 Oeste 0 994.8 1 59
2019-12-11 21:00:00 8.8 25 Oeste 55 Oeste 0 994.9 1.9 60
2019-12-11 20:00:00 9.1 32 Oeste 58 Oeste 0 994.4 2.3 59
2019-12-11 19:00:00 9.5 34 Oeste 58 Noroeste 0 993.8 1.8 59
2019-12-11 18:00:00 9.9 30 Oeste 54 Oeste 0 993 0.8 61
2019-12-11 17:00:00 11.7 27 Oeste 46 Noroeste 0 992.1 -0.9 56
2019-12-11 16:00:00 12.8 27 Oeste 42 Oeste 0 992 -1.9 62
2019-12-11 15:00:00 10.9 13 Sudoeste 30 Sudoeste 0 992.2 -2.5 78
2019-12-11 14:00:00 9.5 12 Sudoeste 21 Oeste 0 993 -2.2 79
2019-12-11 13:00:00 8.1 10 Sudoeste 17 Sur 0 993.9 -1.7 85
2019-12-11 12:00:00 6.5 9 Sudoeste 12 Sudoeste 0 994.7 -0.9 90
2019-12-11 11:00:00 6.4 7 Sur 10 Sur 0 995.2 -0.7 88
2019-12-11 10:00:00 2.7 5 Sudoeste 9 Sudoeste 0 995.6 -0.3 96
2019-12-11 09:00:00 1.5 3 Sudeste 8 Oeste 0 995.6 -0.6 95
2019-12-11 08:00:00 1.5 5 Sudoeste 8 Sudoeste 0 995.9 -0.8 92
2019-12-11 07:00:00 2.1 4 Nordeste 7 Norte 0 995.9 -1.4 93
2019-12-11 06:00:00 2.8 4 Norte 8 Norte 0 996.2 -1.3 91
2019-12-11 05:00:00 3.4 3 Nordeste 8 Nordeste 0 996.7 -1.5 91
2019-12-11 04:00:00 3.3 6 Nordeste 9 Nordeste 0 997.3 -1.2 91
2019-12-11 03:00:00 3.6 7 Nordeste 11 Nordeste 0 997.5 -1.3 91
2019-12-11 02:00:00 3.5 8 Norte 11 Norte 0 998.2 -0.7 91
2019-12-11 01:00:00 4.4 7 Nordeste 12 Este 0 998.5 -0.4 88
2019-12-11 00:00:00 5.2 7 Nordeste 12 Norte 0 998.8 -0.2 86
2019-12-10 23:00:00 5.5 8 Nordeste 12 Nordeste 0 998.9 -0.3 85
2019-12-10 22:00:00 5.6 7 Norte 12 Nordeste 0 998.9 -0.5 85
2019-12-10 21:00:00 6.1 6 Nordeste 11 Nordeste 0 999 -0.2 84
2019-12-10 20:00:00 6.6 4 Nordeste 10 Norte 0 999.2 -0.3 81
2019-12-10 19:00:00 8 7 Norte 9 Norte 0 999.4 -0.5 78
2019-12-10 18:00:00 9.5 7 Nordeste 10 Norte 0 999.2 -1 72
2019-12-10 17:00:00 12.7 2 Sur 16 Sur 0 999.5 -1.3 59
2019-12-10 16:00:00 13.1 11 Sudoeste 17 Sudoeste 0 999.9 -1.7 55
2019-12-10 15:00:00 12.9 10 Sudoeste 22 Oeste 0 1000.2 -1.9 58
2019-12-10 14:00:00 12.1 12 Sudoeste 20 Sur 0 1000.8 -1.8 61
2019-12-10 13:00:00 11.1 12 Sur 25 Sudoeste 0 1001.6 -0.5 66
2019-12-10 12:00:00 10.1 13 Sudoeste 24 Sudoeste 0 1002.1 0.6 71
2019-12-10 11:00:00 9.1 13 Sudoeste 21 Sudoeste 0 1002.6 1.4 76
2019-12-10 10:00:00 7.6 9 Sudoeste 19 Sudoeste 0 1002.1 1.3 81
2019-12-10 09:00:00 6.5 9 Sudoeste 17 Sudoeste 0 1001.5 0.7 82
2019-12-10 08:00:00 5.8 12 Sur 18 Sur 0 1001.2 0.7 85
2019-12-10 07:00:00 7.4 9 Oeste 31 Sur 0 1000.8 0 74
2019-12-10 06:00:00 7.5 12 Sudoeste 37 Noroeste 0 1000.8 -0.1 75
2019-12-10 05:00:00 8 23 Oeste 44 Noroeste 0 1000.5 -0.6 74
2019-12-10 04:00:00 8.3 28 Oeste 45 Oeste 0 1000.8 -0.6 74
2019-12-10 03:00:00 8.6 27 Oeste 48 Noroeste 0 1000.9 -0.9 74
2019-12-10 02:00:00 9 30 Oeste 49 Oeste 0 1001.1 -0.4 72
2019-12-10 01:00:00 8.9 20 Oeste 36 Oeste 0 1001.4 0.1 75
2019-12-10 00:00:00 9.1 21 Oeste 37 Noroeste 0 1001.8 0.9 73
2019-12-09 23:00:00 9.5 22 Oeste 40 Oeste 0 1001.5 0.7 70
2019-12-09 22:00:00 9.7 22 Oeste 51 Oeste 0 1001.3 1.3 69
2019-12-09 21:00:00 9.8 29 Oeste 46 Oeste 0 1000.9 2 67
2019-12-09 20:00:00 10.3 23 Oeste 45 Oeste 0 1000.8 2 65
2019-12-09 19:00:00 10.9 25 Oeste 51 Oeste 0 1000 2.1 60
2019-12-09 18:00:00 11.6 30 Oeste 57 Noroeste 0 998.9 1.5 59
2019-12-09 17:00:00 12.7 31 Oeste 60 Oeste 0 998.8 1.2 57
2019-12-09 16:00:00 13.6 33 Oeste 67 Oeste 0 997.9 -0.4 61
2019-12-09 15:00:00 14 41 Oeste 75 Noroeste 0 997.4 -1.3 59
2019-12-09 14:00:00 13.9 45 Oeste 75 Oeste 0 997.6 -1.7 59
2019-12-09 13:00:00 13.4 41 Oeste 70 Oeste 0 998.3 -0.6 60
2019-12-09 12:00:00 12.6 39 Oeste 67 Oeste 0 998.7 0.3 62
2019-12-09 11:00:00 12 31 Oeste 59 Oeste 0 999.3 1.1 66
2019-12-09 10:00:00 10.7 28 Oeste 46 Oeste 0 998.9 0.5 67
2019-12-09 09:00:00 8.7 22 Oeste 40 Oeste 0 998.4 -0.1 77
2019-12-09 08:00:00 5.5 11 Sudoeste 22 Sudoeste 0 998.2 -0.5 96
2019-12-09 07:00:00 3.2 8 Sudoeste 13 Sudoeste 0 998.4 -0.8 99
2019-12-09 06:00:00 2.8 6 Oeste 9 Oeste 0.2 998.5 -0.5 99
2019-12-09 05:00:00 4.3 2 Sudeste 5 Sudeste 0 998.7 0.2 98
2019-12-09 04:00:00 5.5 4 Sudoeste 8 Sudoeste 0 999.2 0.8 98
2019-12-09 03:00:00 6.1 3 Nordeste 7 Este 0 999 0.3 98
2019-12-09 02:00:00 7.1 4 Norte 8 Norte 0 998.5 0.6 96
2019-12-09 01:00:00 7.4 4 Nordeste 9 Nordeste 0 998.4 0.4 96
2019-12-09 00:00:00 7.5 4 Nordeste 8 Norte 0 998.7 0.6 96
2019-12-08 23:00:00 7.5 3 Nordeste 10 Nordeste 0 997.9 -0.2 96
2019-12-08 22:00:00 7.5 3 Norte 7 Norte 0 998 0.1 95
2019-12-08 21:00:00 7.4 3 Este 8 Sur 0 998.1 0.3 96
2019-12-08 20:00:00 7.3 4 Sudoeste 6 Sudoeste 0 998.1 0.4 96
2019-12-08 19:00:00 7.2 2 Sur 6 Oeste 0 997.9 0 95
2019-12-08 18:00:00 7.3 2 Sur 6 Sur 0 997.8 -0.1 95
2019-12-08 17:00:00 7.4 4 Sudeste 7 Sur 0 997.7 -0.7 94
2019-12-08 16:00:00 7.3 4 Sur 8 Sudeste 0 997.9 -1.4 95
2019-12-08 15:00:00 7 4 Sur 9 Sur 0 997.9 -2.3 97
2019-12-08 14:00:00 6.8 5 Sur 12 Sur 0 998.4 -2.2 97
2019-12-08 13:00:00 6.7 7 Sudoeste 13 Sudoeste 0 999.3 -1.3 98
2019-12-08 12:00:00 6.6 6 Sudoeste 12 Sudoeste 0 1000.2 -0.2 99
2019-12-08 11:00:00 6.4 8 Oeste 13 Oeste 0 1000.6 0.4 100
2019-12-08 10:00:00 6.2 8 Sudoeste 12 Sudoeste 0 1000.6 0.8 100
2019-12-08 09:00:00 6.2 7 Sudoeste 15 Sudoeste 0 1000.4 0.8 100
2019-12-08 08:00:00 6.6 6 Oeste 12 Oeste 0 1000.2 0.2 100
2019-12-08 07:00:00 7 5 Oeste 9 Oeste 0 999.8 -0.5 100
2019-12-08 06:00:00 7 2 Este 4 Este 0 999.6 -1.3 100
2019-12-08 05:00:00 6.9 3 Norte 6 Nordeste 0 1000 -0.9 100
2019-12-08 04:00:00 7 4 Nordeste 6 Nordeste 0 1000.3 -0.7 100
2019-12-08 03:00:00 7.2 3 Nordeste 5 Nordeste 0 1000.9 -0.6 100
2019-12-08 02:00:00 7.2 2 Nordeste 8 Nordeste 0 1000.9 -0.3 100
2019-12-08 01:00:00 7.3 4 Este 6 Este 0 1001 -0.1 100
2019-12-08 00:00:00 7.3 3 Este 8 Nordeste 0 1001.5 0.5 100
2019-12-07 23:00:00 7.4 4 Nordeste 6 Este 0 1001.2 0.5 100
2019-12-07 22:00:00 7.3 3 Nordeste 7 Nordeste 0 1001.1 1 100
2019-12-07 21:00:00 7.3 0 Calma 5 Sudoeste 0 1001 1.1 100
2019-12-07 20:00:00 7.2 2 Sudoeste 5 Sur 0 1000.7 1 100
2019-12-07 19:00:00 7.1 4 Sur 6 Sur 0 1000.1 0.4 100
2019-12-07 18:00:00 7.1 4 Sur 7 Sudoeste 0 999.9 0.2 100
2019-12-07 17:00:00 7.1 3 Sur 8 Sur 0 999.7 -0.5 100
2019-12-07 16:00:00 7.1 2 Sudeste 8 Sudoeste 0 999.7 -1.3 100
2019-12-07 15:00:00 7.2 4 Sur 8 Oeste 0 999.7 -1.9 100
2019-12-07 14:00:00 7.1 3 Oeste 8 Oeste 0 1000.2 -1.3 100
2019-12-07 13:00:00 6.7 3 Sudoeste 7 Sudoeste 0 1001 -0.1 100
2019-12-07 12:00:00 6.5 5 Oeste 8 Noroeste 0 1001.6 0.9 100
2019-12-07 11:00:00 6.4 3 Oeste 8 Sudoeste 0.2 1001.5 1.2 100
2019-12-07 10:00:00 6.3 5 Sur 9 Sudeste 0 1001.1 1.1 100
2019-12-07 09:00:00 6.2 3 Oeste 8 Sur 0 1000.7 1 100
2019-12-07 08:00:00 6.2 5 Sudoeste 11 Sudoeste 0 1000.3 0.6 100
2019-12-07 07:00:00 6 6 Sudoeste 11 Oeste 0 1000 0.1 100
2019-12-07 06:00:00 5.8 6 Sudoeste 9 Sudoeste 0 999.7 -0.5 100
2019-12-07 05:00:00 5.5 4 Sur 6 Sur 0 999.7 -0.2 100
2019-12-07 04:00:00 5.6 4 Sur 6 Sur 0 999.9 -0.1 100
2019-12-07 03:00:00 5.3 4 Sur 8 Norte 0 1000.2 0 100
2019-12-07 02:00:00 4.8 3 Nordeste 5 Norte 0 999.9 0.1 100
2019-12-07 01:00:00 4.6 2 Este 10 Nordeste 0 1000 0.4 99
2019-12-07 00:00:00 5.6 4 Nordeste 8 Nordeste 0 1000.2 0.6 99
2019-12-06 23:00:00 6.5 2 Nordeste 9 Norte 0 999.8 0.3 98
2019-12-06 22:00:00 7.5 5 Nordeste 10 Nordeste 0 999.6 0.6 98
2019-12-06 21:00:00 8.2 8 Nordeste 9 Nordeste 0 999.6 0.9 97
2019-12-06 20:00:00 8.8 6 Nordeste 10 Norte 0 999.5 0.9 96
2019-12-06 19:00:00 9.5 6 Nordeste 10 Nordeste 0 999 0.4 93
2019-12-06 18:00:00 11.3 3 Sur 6 Oeste 0 998.7 0 84
2019-12-06 17:00:00 13.6 4 Oeste 10 Sur 0 998.6 -1 75
2019-12-06 16:00:00 14.2 8 Sur 13 Sudoeste 0 998.6 -1.7 74
2019-12-06 15:00:00 14.1 6 Sur 12 Sur 0 998.7 -2.5 76
2019-12-06 14:00:00 13.9 5 Sur 10 Sur 0 999.6 -2.3 78
2019-12-06 13:00:00 12.5 3 Sudoeste 9 Sur 0 1000.3 -1.2 82
2019-12-06 12:00:00 11.4 4 Sur 6 Oeste 0 1001.2 0.3 91
2019-12-06 11:00:00 9.5 3 Sur 5 Sur 0 1001.9 1.8 98
2019-12-06 10:00:00 8.8 0 Calma 7 Norte 0 1001.5 1.7 100
2019-12-06 09:00:00 8.2 3 Noroeste 5 Noroeste 0.2 1000.9 1.5 100
2019-12-06 08:00:00 8 3 Sur 4 Sur 0 1000.1 0.6 100
2019-12-06 07:00:00 8.1 3 Sur 5 Sur 0 999.8 0.2 100
2019-12-06 06:00:00 8.5 4 Sudoeste 6 Sudoeste 0 999.4 -0.1 100
2019-12-06 05:00:00 8.7 0 Calma 4 Sudoeste 0 999.5 0.1 100
2019-12-06 04:00:00 8.8 3 Este 4 Nordeste 0 999.6 0.2 100
2019-12-06 03:00:00 8.8 2 Nordeste 4 Norte 0 999.5 -0.1 100
2019-12-06 02:00:00 8.8 4 Nordeste 5 Nordeste 0 999.4 0.2 100
2019-12-06 01:00:00 8.9 0 Calma 6 Norte 0 999.4 0.4 99
2019-12-06 00:00:00 8.8 0 Calma 6 Nordeste 0 999.6 0.8 99
2019-12-05 23:00:00 8.9 3 Nordeste 4 Nordeste 0 999.2 0.7 99
2019-12-05 22:00:00 8.9 3 Sur 8 Sur 0 999 1.1 99
2019-12-05 21:00:00 9.3 0 Calma 6 Sur 0 998.8 1.3 98
2019-12-05 20:00:00 9.3 5 Sudoeste 6 Sudoeste 0 998.5 1.8 98
2019-12-05 19:00:00 9.6 4 Sudoeste 8 Sur 0.2 997.9 1.4 97
2019-12-05 18:00:00 9.8 4 Sudeste 9 Sudoeste 0 997.5 1.7 96
2019-12-05 17:00:00 10.1 4 Oeste 10 Oeste 0.6 996.7 1.2 95
2019-12-05 16:00:00 10.3 6 Sudoeste 9 Sudoeste 0.4 996.5 1.2 93
2019-12-05 15:00:00 10.3 7 Sur 12 Sur 0 995.8 0.2 91
2019-12-05 14:00:00 11 9 Sur 15 Sudoeste 0 995.5 -0.3 91
2019-12-05 13:00:00 11.1 4 Oeste 18 Oeste 0 995.3 0.4 89
2019-12-05 12:00:00 10.8 4 Sudoeste 11 Sudoeste 0.6 995.6 1.4 95
2019-12-05 11:00:00 10.4 6 Oeste 9 Oeste 0.6 995.8 2.4 96
2019-12-05 10:00:00 10 3 Sudoeste 9 Noroeste 0.4 994.9 2.4 97
2019-12-05 09:00:00 9.6 4 Noroeste 12 Noroeste 0.8 994.2 2.4 97
2019-12-05 08:00:00 9.3 6 Noroeste 9 Noroeste 1 993.4 2 98
2019-12-05 07:00:00 9.1 0 Calma 5 Noroeste 1.2 992.5 1.6 97
2019-12-05 06:00:00 9.5 4 Nordeste 14 Norte 1.2 991.8 1.1 96
2019-12-05 05:00:00 9.4 10 Norte 17 Norte 1.8 991.4 1.5 96
2019-12-05 04:00:00 9.5 9 Norte 18 Norte 1.6 990.9 1.3 95
2019-12-05 03:00:00 9.8 9 Nordeste 35 Este 1.4 990.7 2.2 92
2019-12-05 02:00:00 10.2 12 Nordeste 26 Nordeste 0.2 989.9 1.7 90
2019-12-05 01:00:00 10.9 13 Nordeste 38 Nordeste 0 989.6 2.2 84
2019-12-05 00:00:00 10.6 18 Nordeste 43 Nordeste 0 988.5 1.2 87
2019-12-04 23:00:00 10.6 11 Nordeste 32 Nordeste 0.2 988.2 1 86
2019-12-04 22:00:00 10.4 9 Nordeste 22 Este 0.2 987.4 0.5 89
2019-12-04 21:00:00 10.6 15 Nordeste 32 Nordeste 0.2 987.3 1.1 86
2019-12-04 20:00:00 9.6 9 Norte 16 Norte 0.4 987.2 1.3 92
2019-12-04 19:00:00 9.2 7 Noroeste 13 Noroeste 1.2 986.9 1.5 97
2019-12-04 18:00:00 8.5 6 Nordeste 14 Norte 0.6 986.2 1.1 99
2019-12-04 17:00:00 7.9 7 Norte 12 Norte 1.2 985.9 0.5 99
2019-12-04 16:00:00 7.4 2 Sudoeste 8 Sudoeste 0.6 985.4 -0.6 99
2019-12-04 15:00:00 6.7 4 Sudoeste 10 Sur 0.4 985.1 -1.5 99
2019-12-04 14:00:00 7 4 Norte 13 Sudoeste 0.2 985.4 -2 100
2019-12-04 13:00:00 5.2 8 Sudoeste 14 Sudeste 0.2 986 -1.3 99
2019-12-04 12:00:00 4.7 7 Sur 12 Sur 0.8 986.6 -0.1 99
2019-12-04 11:00:00 4.1 6 Sudoeste 10 Sudoeste 0.4 987.4 0.2 98
2019-12-04 10:00:00 3.5 6 Este 10 Nordeste 0 987.3 -0.6 99
2019-12-04 09:00:00 2.7 5 Norte 8 Oeste 0 986.7 -1.7 99
2019-12-04 08:00:00 2.8 0 Calma 8 Sur 0 987.2 -2.2 98
2019-12-04 07:00:00 2.8 4 Sudeste 9 Sur 0 987.9 -2.1 97
2019-12-04 06:00:00 3.6 4 Norte 8 Norte 0 988.4 -2.5 97
2019-12-04 05:00:00 3.2 4 Sur 7 Sur 0 989.4 -2.4 96
2019-12-04 04:00:00 4 0 Calma 9 Nordeste 0 990 -2.9 94
2019-12-04 03:00:00 4.4 3 Norte 5 Nordeste 0 990.9 -2.9 94
2019-12-04 02:00:00 4.2 3 Sudeste 8 Norte 0 991.8 -2.3 95
2019-12-04 01:00:00 3.8 3 Nordeste 10 Norte 0 992.9 -1.3 95
2019-12-04 00:00:00 3.8 0 Calma 5 Nordeste 0 993.8 -0.3 93
2019-12-03 23:00:00 4.3 3 Nordeste 6 Nordeste 0 994.1 0 92
2019-12-03 22:00:00 4.5 3 Norte 5 Norte 0 994.2 0.3 93
2019-12-03 21:00:00 4.8 2 Noroeste 5 Sudoeste 0 994.1 0.4 90
2019-12-03 20:00:00 4.7 3 Sudoeste 7 Sur 0 994.1 0.1 88
2019-12-03 19:00:00 5.3 3 Sur 5 Nordeste 0 993.9 -0.5 86
2019-12-03 18:00:00 5.8 4 Nordeste 8 Norte 0 993.7 -1 82
2019-12-03 17:00:00 6 4 Nordeste 8 Norte 0 994 -1.2 80
2019-12-03 16:00:00 6.4 5 Norte 10 Nordeste 0 994.4 -1.2 79
2019-12-03 15:00:00 6.7 6 Nordeste 11 Nordeste 0 994.7 -1.7 77
2019-12-03 14:00:00 6.8 5 Nordeste 10 Norte 0 995.2 -1.6 78
2019-12-03 13:00:00 7.4 5 Norte 12 Nordeste 0 995.6 -1.1 75
2019-12-03 12:00:00 7 3 Este 6 Sur 0 996.4 -0.1 76
2019-12-03 11:00:00 5.5 2 Sudoeste 5 Sudoeste 0 996.8 0.7 85
2019-12-03 10:00:00 4.2 2 Nordeste 5 Norte 0 996.7 1 94
2019-12-03 09:00:00 2.4 2 Sur 4 Sur 0 996.5 1.3 99
2019-12-03 08:00:00 1.3 2 Sur 4 Sur 0 996.1 0.7 99
2019-12-03 07:00:00 0.5 3 Sur 5 Sudoeste 0 995.7 0.1 98
2019-12-03 06:00:00 0.8 3 Sudoeste 9 Sudoeste 0 995.2 -0.5 97
2019-12-03 05:00:00 1.4 7 Sudoeste 10 Sudoeste 0 995.4 -0.2 97
2019-12-03 04:00:00 1.7 3 Sudoeste 7 Sudoeste 0 995.6 -0.1 97
2019-12-03 03:00:00 2.7 4 Sudoeste 10 Sudoeste 0 995.7 0 97
2019-12-03 02:00:00 2.5 5 Sudoeste 8 Oeste 0 995.6 0.2 97
2019-12-03 01:00:00 2.9 6 Sudoeste 11 Sudoeste 0 995.7 0.5 97
2019-12-03 00:00:00 3.3 5 Sudoeste 9 Oeste 0 995.7 1.1 97
2019-12-02 23:00:00 3.6 2 Sur 6 Norte 0 995.4 0.9 95
2019-12-02 22:00:00 4.8 6 Nordeste 9 Norte 0 995.2 1.2 95
2019-12-02 21:00:00 5.4 6 Nordeste 9 Nordeste 0 994.6 1 94
2019-12-02 20:00:00 6.2 7 Nordeste 12 Nordeste 0 994.5 1.1 92
2019-12-02 19:00:00 7.2 8 Nordeste 12 Nordeste 0 994 0.7 88
2019-12-02 18:00:00 9.3 3 Sudeste 7 Sudoeste 0 993.6 0.1 80
2019-12-02 17:00:00 11.7 5 Sudoeste 12 Sudoeste 0 993.4 -0.5 73
2019-12-02 16:00:00 12 9 Sudoeste 15 Sudoeste 0 993.3 -1.2 70
2019-12-02 15:00:00 11.3 8 Sudoeste 15 Sudoeste 0 993.5 -1.5 74
2019-12-02 14:00:00 9.6 8 Sudoeste 15 Sur 0 993.9 -0.8 84
2019-12-02 13:00:00 7.2 9 Sudoeste 15 Sur 0 994.5 0.2 90
2019-12-02 12:00:00 6.5 8 Sudoeste 14 Sudoeste 0 995 1.3 94
2019-12-02 11:00:00 5.2 6 Sudoeste 9 Sudoeste 0 994.7 1.4 96
2019-12-02 10:00:00 3.9 3 Nordeste 6 Nordeste 0 994.3 1.9 100
2019-12-02 09:00:00 2.5 3 Noroeste 9 Sur 0 993.7 1.8 99
2019-12-02 08:00:00 2.1 6 Sur 9 Sur 0 993.3 1.7 99
2019-12-02 07:00:00 2.3 6 Sudoeste 10 Oeste 0 992.4 0.8 98
2019-12-02 06:00:00 2.4 5 Sudoeste 9 Sur 0 991.9 0.3 98
2019-12-02 05:00:00 2.5 3 Oeste 7 Sur 0 991.6 0.4 97
2019-12-02 04:00:00 2.8 3 Oeste 5 Noroeste 0 991.6 0.6 95
2019-12-02 03:00:00 3.4 3 Sudoeste 5 Norte 0 991.6 0.7 95
2019-12-02 02:00:00 4.1 0 Calma 8 Nordeste 0 991.2 0.5 94
2019-12-02 01:00:00 5.1 5 Nordeste 12 Nordeste 0 991 0.7 92
2019-12-02 00:00:00 5.9 7 Nordeste 13 Nordeste 0 990.9 1.1 90
2019-12-01 23:00:00 6.4 8 Nordeste 12 Nordeste 0 990.7 1.4 89
2019-12-01 22:00:00 6.2 5 Norte 11 Nordeste 0 990.3 1.7 88
2019-12-01 21:00:00 6.7 6 Nordeste 11 Nordeste 0 989.8 1.7 87
2019-12-01 20:00:00 7.3 0 Calma 6 Noroeste 0 989.3 1.5 84
2019-12-01 19:00:00 9 3 Noroeste 6 Oeste 0 988.6 0.8 76
2019-12-01 18:00:00 11.2 3 Sudoeste 8 Sudoeste 0 988.1 0.2 68
2019-12-01 17:00:00 13.9 6 Sudoeste 14 Oeste 0 987.8 -0.5 58
2019-12-01 16:00:00 14.8 8 Oeste 14 Oeste 0 987.8 -0.9 55
2019-12-01 15:00:00 14.5 8 Oeste 21 Noroeste 0 987.9 -1.5 55
2019-12-01 14:00:00 14.1 8 Oeste 14 Oeste 0 988.3 -1.8 58
2019-12-01 13:00:00 13.5 7 Sur 14 Sudoeste 0 988.7 -1.2 70
2019-12-01 12:00:00 12 5 Sudoeste 12 Sudoeste 0 989.4 0.3 77
2019-12-01 11:00:00 10.8 6 Sur 10 Sur 0 990.1 1.3 86
2019-12-01 10:00:00 8.5 4 Sur 7 Sudoeste 0 989.9 1.1 97
2019-12-01 09:00:00 5.5 4 Sudoeste 6 Sudoeste 0 989.1 0.5 97
2019-12-01 08:00:00 5.9 3 Sudoeste 8 Oeste 0 988.8 0.1 96
2019-12-01 07:00:00 6.7 3 Sudoeste 9 Oeste 0 988.8 -0.2 93
2019-12-01 06:00:00 8.1 8 Oeste 10 Oeste 0 988.6 -1.5 91
2019-12-01 05:00:00 9.6 7 Oeste 12 Oeste 0 988.7 -1.7 89
2019-12-01 04:00:00 10.1 4 Sudoeste 10 Sur 0 989 -1.3 89
2019-12-01 03:00:00 10.9 3 Sudoeste 15 Oeste 0 990.1 0.3 89
2019-12-01 02:00:00 11.6 7 Oeste 19 Oeste 0 990.4 1 86
2019-12-01 01:00:00 12 11 Oeste 22 Sudoeste 0 990.3 1.2 85
2019-12-01 00:00:00 12.1 9 Sur 12 Sur 0 989.8 0.1 86
2019-11-30 23:00:00 13 5 Norte 24 Oeste 0 989.4 -0.6 83
2019-11-30 22:00:00 12.1 6 Nordeste 10 Nordeste 0 989.1 -0.8 81
2019-11-30 21:00:00 12.4 5 Norte 8 Norte 0 989.7 -0.2 80
2019-11-30 20:00:00 12.6 2 Oeste 6 Sur 0 990 -0.5 79
2019-11-30 19:00:00 13.2 4 Sudeste 11 Nordeste 0 989.9 -1.4 75
2019-11-30 18:00:00 13.4 6 Nordeste 10 Nordeste 0 989.9 -2.3 72
2019-11-30 17:00:00 15.3 6 Nordeste 11 Nordeste 0 990.5 -2.8 65
2019-11-30 16:00:00 16.2 5 Nordeste 11 Nordeste 0 991.3 -3.1 62
2019-11-30 15:00:00 15.1 4 Nordeste 11 Nordeste 0 992.2 -3.3 66
2019-11-30 14:00:00 14.1 5 Nordeste 9 Nordeste 0 993.3 -3 67
2019-11-30 13:00:00 13 5 Este 9 Nordeste 0 994.4 -2.1 70
2019-11-30 12:00:00 12.5 5 Nordeste 13 Este 0 995.5 -0.8 71
2019-11-30 11:00:00 10.1 4 Este 10 Nordeste 0 996.3 0 77
2019-11-30 10:00:00 8.1 6 Nordeste 12 Norte 0 996.5 0.2 85
2019-11-30 09:00:00 6.4 5 Nordeste 15 Nordeste 0 996.3 -0.3 91
2019-11-30 08:00:00 5.1 8 Norte 11 Norte 0 996.3 -0.5 93
2019-11-30 07:00:00 5.5 7 Nordeste 12 Nordeste 0 996.3 -0.8 92
2019-11-30 06:00:00 5.7 8 Nordeste 11 Norte 0 996.6 -0.6 91
2019-11-30 05:00:00 5.6 7 Nordeste 13 Nordeste 0 996.8 -0.5 92
2019-11-30 04:00:00 5.8 8 Nordeste 13 Nordeste 0 997.1 -0.1 91
2019-11-30 03:00:00 6.4 8 Nordeste 12 Nordeste 0 997.2 0 90
2019-11-30 02:00:00 6.6 6 Norte 12 Nordeste 0 997.3 0.3 88
2019-11-30 01:00:00 6.7 8 Norte 12 Nordeste 0 997.2 0.4 88
2019-11-30 00:00:00 7.5 5 Nordeste 11 Norte 0 997.2 0.6 87
2019-11-29 23:00:00 8.7 6 Oeste 10 Sudoeste 0 997 0.8 86
2019-11-29 22:00:00 9 7 Sudoeste 10 Sudoeste 0 996.8 1.1 85
2019-11-29 21:00:00 9.2 6 Oeste 9 Sudoeste 0 996.6 1.6 83
2019-11-29 20:00:00 10.2 0 Calma 12 Oeste 0 996.2 1.6 75
2019-11-29 19:00:00 13 10 Sudoeste 17 Oeste 0 995.7 1.6 65
2019-11-29 18:00:00 14.9 11 Oeste 18 Oeste 0 995 1.1 58
2019-11-29 17:00:00 17.4 16 Oeste 33 Oeste 0 994.6 0.7 50
2019-11-29 16:00:00 18.5 25 Oeste 42 Noroeste 0 994.1 0 47
2019-11-29 15:00:00 18.8 23 Oeste 46 Oeste 0 993.9 -0.8 49
2019-11-29 14:00:00 18.9 26 Oeste 46 Oeste 0 993.9 -0.9 47
2019-11-29 13:00:00 18.7 20 Oeste 37 Oeste 0 994.1 0.1 51
2019-11-29 12:00:00 17.2 20 Oeste 32 Oeste 0 994.7 1.3 60
2019-11-29 11:00:00 15.4 14 Oeste 23 Oeste 0 994.8 2.2 72
2019-11-29 10:00:00 11.7 3 Sudoeste 5 Este 0 994 2 83
2019-11-29 09:00:00 8 2 Este 6 Norte 0 993.4 2.1 93
2019-11-29 08:00:00 8.5 5 Oeste 9 Sudoeste 0 992.6 1.5 88
2019-11-29 07:00:00 9.4 7 Sudoeste 9 Sudoeste 0 992 1.3 85
2019-11-29 06:00:00 10.2 6 Sudoeste 8 Sudoeste 0 991.3 0.5 83
2019-11-29 05:00:00 10 6 Sudoeste 8 Sudoeste 0 991.1 1 84
2019-11-29 04:00:00 10.3 6 Sudoeste 9 Sudoeste 0 990.7 0.3 83
2019-11-29 03:00:00 10.5 5 Sudoeste 10 Oeste 0 990.8 0.2 82
2019-11-29 02:00:00 11.1 7 Oeste 10 Oeste 0 990.1 -0.4 79
2019-11-29 01:00:00 11.3 4 Sudoeste 5 Sudoeste 0 990.4 0 79
2019-11-29 00:00:00 12.3 4 Sur 12 Oeste 0 990.6 0.2 74
2019-11-28 23:00:00 12.9 7 Oeste 10 Oeste 0 990.5 0.4 70
2019-11-28 22:00:00 13.5 5 Oeste 15 Sudoeste 0 990.4 0.8 67
2019-11-28 21:00:00 14.1 8 Sudoeste 20 Sudoeste 0 990.4 1.4 66
2019-11-28 20:00:00 13 8 Sudoeste 14 Sudoeste 0 990.1 0.7 77
2019-11-28 19:00:00 13.6 6 Oeste 10 Sudeste 0 989.6 0.2 75
2019-11-28 18:00:00 14.3 3 Sudeste 7 Nordeste 0 989 -0.3 73
2019-11-28 17:00:00 16.3 5 Nordeste 9 Noroeste 0 989.4 -0.3 63
2019-11-28 16:00:00 17.8 6 Noroeste 14 Oeste 0 989.4 -0.8 55
2019-11-28 15:00:00 17.8 8 Oeste 23 Sudoeste 0 989.3 -1.4 56
2019-11-28 14:00:00 17.8 13 Oeste 22 Oeste 0 989.7 -1.3 55
2019-11-28 13:00:00 17 13 Oeste 27 Oeste 0 990.2 -0.4 57
2019-11-28 12:00:00 15.7 8 Sudoeste 17 Oeste 0 990.7 0.8 63
2019-11-28 11:00:00 13.5 6 Sudoeste 12 Sudoeste 0 991 1.8 71
2019-11-28 10:00:00 10.8 4 Sudoeste 8 Sudoeste 0 990.6 2.1 83
2019-11-28 09:00:00 6.8 5 Oeste 7 Sudoeste 0 989.9 2.1 98
2019-11-28 08:00:00 5 4 Oeste 6 Oeste 0 989.2 1.6 95
2019-11-28 07:00:00 5.6 3 Noroeste 9 Sudoeste 0 988.5 1.3 92
2019-11-28 06:00:00 6.4 6 Oeste 11 Oeste 0 987.8 0.6 93
2019-11-28 05:00:00 6.3 3 Oeste 8 Sudoeste 0 987.6 0.3 93
2019-11-28 04:00:00 6.2 5 Sudoeste 6 Sudoeste 0 987.2 0.2 90
2019-11-28 03:00:00 6.9 4 Sur 10 Sur 0 987.2 0.1 89
2019-11-28 02:00:00 7.3 6 Sur 8 Sur 0 987.3 0.2 89
2019-11-28 01:00:00 7.8 6 Oeste 9 Oeste 0 987 0 87
2019-11-28 00:00:00 8.4 5 Sudoeste 9 Sur 0 987.1 0.3 84
2019-11-27 23:00:00 10 6 Oeste 9 Oeste 0 987.1 0.3 78
2019-11-27 22:00:00 11 5 Oeste 13 Oeste 0 987 0.2 73
2019-11-27 21:00:00 11.1 6 Sudoeste 8 Oeste 0 986.8 0.4 73
2019-11-27 20:00:00 10.6 5 Sudoeste 7 Sudoeste 0 986.8 0.8 76
2019-11-27 19:00:00 11.3 2 Sur 12 Oeste 0 986.8 1.3 71
2019-11-27 18:00:00 13.8 7 Oeste 17 Oeste 0 986.4 0.9 60
2019-11-27 17:00:00 16.2 12 Oeste 28 Oeste 0 986 0.5 52
2019-11-27 16:00:00 17.2 14 Oeste 32 Oeste 0 985.5 0 48
2019-11-27 15:00:00 17 15 Oeste 32 Oeste 0 985.5 -0.2 51
2019-11-27 14:00:00 16.5 15 Oeste 33 Oeste 0 985.5 -0.5 55
2019-11-27 06:00:00 6 7 Sur 12 Sudoeste 0 982.6 0.7 98
2019-11-27 05:00:00 6.8 6 Sudoeste 8 Sur 0 982.3 0.6 98
2019-11-27 04:00:00 7.4 4 Noroeste 10 Oeste 0 982.2 0.2 97
2019-11-27 03:00:00 7.8 4 Sudoeste 9 Oeste 0 981.9 -1 96
2019-11-27 02:00:00 8.9 5 Norte 10 Norte 0 981.7 -2.1 94
2019-11-27 01:00:00 9 8 Norte 11 Norte 0 982 -2.3 96
2019-11-27 00:00:00 9.6 5 Norte 10 Norte 0 982.9 -1.6 94
2019-11-26 23:00:00 10.2 3 Nordeste 12 Este 0.2 983.8 -1.3 94
2019-11-26 22:00:00 10.3 6 Nordeste 15 Nordeste 0 984.3 0 92
2019-11-26 21:00:00 10.8 9 Nordeste 14 Nordeste 0 984.5 -0.2 88
2019-11-26 20:00:00 11.1 7 Norte 14 Norte 0 985.1 -0.2 86
2019-11-26 19:00:00 11 4 Este 6 Nordeste 0 984.3 -1.6 88
2019-11-26 18:00:00 12.6 3 Nordeste 6 Nordeste 0 984.7 -1.7 81
2019-11-26 17:00:00 15 2 Norte 8 Sudeste 0 985.3 -1.9 70
2019-11-26 16:00:00 15.1 4 Sur 6 Sur 0 985.9 -2 71
2019-11-26 15:00:00 14.2 2 Sur 7 Sudoeste 0 986.4 -2.8 72
2019-11-26 14:00:00 13.6 4 Sudoeste 13 Sudoeste 0 987.2 -2.7 74
2019-11-26 13:00:00 12.6 4 Sudoeste 9 Sudoeste 0 987.9 -1.8 78
2019-11-26 12:00:00 10.2 4 Sudoeste 8 Sudoeste 0 989.2 0 88
2019-11-26 11:00:00 7.4 3 Sudoeste 7 Sudoeste 0 989.9 0.7 98
2019-11-26 10:00:00 5.7 3 Sur 6 Sur 0 989.7 0.4 100
2019-11-26 09:00:00 4.2 3 Nordeste 5 Nordeste 0 989.2 -0.1 99
2019-11-26 08:00:00 3.9 2 Norte 4 Noroeste 0 989.2 -0.3 98
2019-11-26 07:00:00 3.4 5 Sudoeste 9 Sudoeste 0 989.3 -0.4 96
2019-11-26 06:00:00 4.3 3 Oeste 8 Nordeste 0 989.3 -0.4 96
2019-11-26 05:00:00 5.1 5 Nordeste 9 Nordeste 0 989.5 -0.5 97
2019-11-26 04:00:00 5.5 5 Nordeste 9 Norte 0 989.7 -0.4 96
2019-11-26 03:00:00 6.3 6 Nordeste 11 Nordeste 0 989.7 -0.7 96
2019-11-26 02:00:00 6.4 2 Norte 12 Nordeste 0 990 -0.4 94
2019-11-26 01:00:00 7.1 4 Nordeste 8 Nordeste 0 990.1 -0.1 94
2019-11-26 00:00:00 8.1 5 Nordeste 9 Norte 0 990.4 0.4 91
2019-11-25 23:00:00 8.9 8 Norte 12 Norte 0 990.4 0.8 89
2019-11-25 22:00:00 9.5 8 Norte 13 Norte 0 990.2 1 88
2019-11-25 21:00:00 10.2 8 Nordeste 17 Nordeste 0 990 1.5 85
2019-11-25 20:00:00 11 9 Nordeste 14 Nordeste 0 989.6 1.4 84
2019-11-25 19:00:00 12.1 7 Nordeste 12 Nordeste 0 989.2 1.4 81
2019-11-25 18:00:00 13.1 4 Norte 8 Sudeste 0 988.5 0.9 80
2019-11-25 17:00:00 16.1 4 Sudeste 8 Oeste 0 988.2 0.7 68
2019-11-25 16:00:00 16.7 5 Oeste 15 Oeste 0 987.8 -0.2 63
2019-11-25 15:00:00 16.3 9 Oeste 21 Oeste 0 987.6 -0.9 64
2019-11-25 14:00:00 15.7 11 Oeste 20 Noroeste 0 987.5 -1.4 64
2019-11-25 13:00:00 13.4 11 Sudoeste 19 Sudoeste 0 988 -0.9 71
2019-11-25 12:00:00 11.7 8 Sudoeste 11 Sudoeste 0 988.5 0.3 74
2019-11-25 11:00:00 9.4 3 Sur 8 Nordeste 0 988.9 0.9 82
2019-11-25 10:00:00 6.6 6 Nordeste 12 Nordeste 0 988.9 1.3 90
2019-11-25 09:00:00 4.2 5 Nordeste 12 Nordeste 0 988.2 0.9 96
2019-11-25 08:00:00 3.9 6 Nordeste 12 Nordeste 0 988 0.5 95
2019-11-25 07:00:00 4.4 3 Oeste 7 Sudoeste 0 987.6 0.3 94
2019-11-25 06:00:00 4.5 5 Sudoeste 7 Sur 0 987.3 -0.2 95
2019-11-25 05:00:00 4.8 5 Sudoeste 6 Sudoeste 0 987.5 -0.4 94
2019-11-25 04:00:00 5.8 6 Sudoeste 11 Oeste 0 987.3 -0.8 92
2019-11-25 03:00:00 6.4 9 Oeste 12 Oeste 0 987.5 -1 91
2019-11-25 02:00:00 6.2 6 Oeste 8 Sudoeste 0 987.9 0 89
2019-11-25 01:00:00 5.7 4 Sur 10 Sudoeste 0 988.1 0 89
2019-11-25 00:00:00 5.5 5 Sudoeste 10 Sudoeste 0 988.5 0.7 89
2019-11-24 23:00:00 5.7 4 Sur 12 Oeste 0 987.9 0 87
2019-11-24 22:00:00 6.4 7 Oeste 10 Oeste 0 988.1 0.5 86
2019-11-24 21:00:00 7.2 6 Sudoeste 11 Sudoeste 0 987.8 0.9 83
2019-11-24 20:00:00 8.5 5 Sudoeste 11 Sur 0 987.9 1.3 77
2019-11-24 19:00:00 10.1 6 Sudoeste 14 Sudoeste 0 987.6 1.5 70
2019-11-24 18:00:00 10.9 8 Sudoeste 24 Oeste 0 986.9 0.8 70
2019-11-24 17:00:00 12.9 16 Oeste 37 Oeste 0 986.6 0.5 62
2019-11-24 16:00:00 14 18 Oeste 35 Oeste 0 986.1 0 58
2019-11-24 15:00:00 13.6 17 Oeste 39 Oeste 0 986.1 -0.3 60
2019-11-24 14:00:00 13.5 20 Oeste 44 Oeste 0 986.1 -0.3 59
2019-11-24 13:00:00 13.8 21 Oeste 37 Oeste 0 986.1 0.2 59
2019-11-24 12:00:00 13.3 16 Oeste 32 Oeste 0 986.4 0.7 59
2019-11-24 11:00:00 11.7 11 Oeste 29 Noroeste 0 986.4 1.6 63
2019-11-24 10:00:00 10.1 12 Oeste 27 Oeste 0 985.9 1.8 70
2019-11-24 09:00:00 8.3 12 Sur 19 Sur 0 985.7 2.4 76
2019-11-24 08:00:00 7.3 7 Sudoeste 21 Oeste 0 984.8 2.4 79
2019-11-24 07:00:00 7.5 9 Sudoeste 27 Oeste 0 984.1 2.1 78
2019-11-24 06:00:00 8.2 19 Oeste 45 Oeste 0 983.3 1.8 76
2019-11-24 05:00:00 8.6 28 Oeste 49 Noroeste 0 982.4 1.3 74
2019-11-24 04:00:00 8.7 23 Oeste 47 Oeste 0 982 0.8 75
2019-11-24 03:00:00 8.9 25 Oeste 42 Oeste 0 981.5 0.5 74
2019-11-24 02:00:00 8.7 26 Oeste 49 Oeste 0 981.1 0.5 75
2019-11-24 01:00:00 8.7 26 Oeste 44 Oeste 0 981.2 1.2 76
2019-11-24 00:00:00 8.9 16 Oeste 35 Oeste 0 981 2.8 74
2019-11-23 23:00:00 8.8 14 Oeste 37 Oeste 0 980.6 3.5 74
2019-11-23 22:00:00 9 16 Oeste 46 Oeste 0 980 3.9 73
2019-11-23 21:00:00 9.4 24 Oeste 59 Oeste 0 978.2 3.4 71
2019-11-23 20:00:00 9.8 32 Oeste 59 Oeste 0 977.1 2.9 71
2019-11-23 19:00:00 10.3 35 Oeste 69 Noroeste 0 976.1 2.7 66
2019-11-23 18:00:00 10.9 37 Oeste 62 Oeste 0 974.8 2 67
2019-11-23 17:00:00 11 30 Oeste 65 Oeste 0 974.2 1.5 67
2019-11-23 16:00:00 11.4 38 Oeste 68 Oeste 0 973.4 1 66
2019-11-23 15:00:00 11.8 33 Oeste 69 Noroeste 0 972.8 0.3 66
2019-11-23 14:00:00 11.8 36 Oeste 70 Oeste 0 972.7 0.9 67
2019-11-23 13:00:00 11.2 32 Oeste 53 Oeste 0 972.4 1.8 73
2019-11-23 12:00:00 10.2 24 Oeste 42 Oeste 0 972.5 3.4 82
2019-11-23 11:00:00 10.1 21 Oeste 35 Oeste 0 971.8 3.6 83
2019-11-23 10:00:00 9.2 10 Sudoeste 19 Sudoeste 0 970.6 3.2 91
2019-11-23 09:00:00 6.9 5 Sudoeste 10 Sur 0 969.1 2.3 97
2019-11-23 08:00:00 6.8 5 Sur 9 Sudoeste 0 968.2 1.2 98
2019-11-23 07:00:00 7.2 5 Oeste 7 Sudoeste 0 967.4 0.6 98
2019-11-23 06:00:00 7.7 5 Sudeste 7 Sudoeste 0 966.8 -0.1 97
2019-11-23 05:00:00 8.8 2 Sudeste 9 Norte 0.2 967 -0.1 97
2019-11-23 04:00:00 8.7 4 Norte 8 Norte 0 966.8 -0.9 98
2019-11-23 03:00:00 8.5 4 Sudoeste 6 Sudoeste 0 966.9 -1 94
2019-11-23 02:00:00 9.9 4 Sudoeste 21 Sur 0.2 967.1 -0.2 92
2019-11-23 01:00:00 10.5 10 Sudoeste 22 Sudoeste 0 967.7 -0.6 92
2019-11-23 00:00:00 12 19 Sudoeste 46 Oeste 0.6 967.9 -1.6 87
2019-11-22 23:00:00 12.2 8 Sur 24 Sudoeste 0 967.3 -3.1 96
2019-11-22 22:00:00 11.2 6 Nordeste 17 Nordeste 0 968.3 -3.1 98
2019-11-22 21:00:00 10.9 9 Nordeste 21 Nordeste 0.4 969.5 -3 98
2019-11-22 20:00:00 10.6 12 Nordeste 19 Nordeste 1.2 970.4 -2.5 98
2019-11-22 19:00:00 10.5 9 Nordeste 17 Nordeste 3.4 971.4 -2.4 96
2019-11-22 18:00:00 11 8 Nordeste 13 Nordeste 1.6 972.5 -2 94
2019-11-22 17:00:00 12.4 7 Este 26 Sudeste 0.2 972.9 -2.6 82
2019-11-22 16:00:00 12.9 9 Sudeste 20 Sur 0.4 973.8 -3.3 79
2019-11-22 15:00:00 14 8 Sudeste 22 Este 0 974.5 -4.4 72
2019-11-22 14:00:00 14.2 5 Este 13 Nordeste 0 975.5 -4.8 73
2019-11-22 13:00:00 12.6 6 Nordeste 13 Nordeste 0 977.1 -3.8 74
2019-11-22 12:00:00 10.5 7 Nordeste 17 Nordeste 0 978.9 -2.6 75
2019-11-22 11:00:00 8.9 8 Nordeste 15 Este 0 980.3 -1.7 76
2019-11-22 10:00:00 6.5 4 Nordeste 12 Nordeste 0 980.9 -1.1 89
2019-11-22 09:00:00 4.5 3 Nordeste 5 Nordeste 0 981.5 -0.8 95
2019-11-22 08:00:00 4.3 2 Noroeste 4 Nordeste 0 982 -0.5 92
2019-11-22 07:00:00 5.2 4 Norte 9 Nordeste 0 982 -1.1 90
2019-11-22 06:00:00 5.9 6 Nordeste 10 Nordeste 0 982.3 -1.4 88
2019-11-22 05:00:00 5.8 8 Nordeste 13 Norte 0 982.5 -1.6 89
2019-11-22 04:00:00 6 6 Nordeste 14 Nordeste 0 983.1 -1.3 87
2019-11-22 03:00:00 6.1 7 Nordeste 13 Norte 0 983.7 -1.3 87
2019-11-22 02:00:00 5.6 8 Nordeste 14 Nordeste 0 984.1 -0.9 88
2019-11-22 01:00:00 5.7 7 Nordeste 12 Nordeste 0 984.4 -0.5 87
2019-11-22 00:00:00 5.6 8 Norte 12 Nordeste 0 985 0.4 89
2019-11-21 23:00:00 5.5 9 Nordeste 17 Norte 0 985 0.4 89
2019-11-21 22:00:00 5.4 9 Nordeste 13 Norte 0 984.9 0.6 89
2019-11-21 21:00:00 5.9 5 Nordeste 9 Norte 0 984.6 0.7 86
2019-11-21 20:00:00 6.8 2 Este 8 Noroeste 0 984.6 0.8 84
2019-11-21 19:00:00 8 0 Calma 6 Sudeste 0 984.3 0.7 82
2019-11-21 18:00:00 9.8 4 Norte 5 Norte 0 983.9 0.3 73
2019-11-21 17:00:00 12.4 3 Sur 8 Este 0 983.8 -0.5 62
2019-11-21 16:00:00 13.5 5 Sudeste 12 Sudoeste 0 983.6 -1.2 57
2019-11-21 15:00:00 13.4 5 Sudoeste 12 Sudoeste 0 983.6 -1.7 58
2019-11-21 14:00:00 12.5 5 Sudoeste 14 Sudoeste 0 984.3 -1.3 61
2019-11-21 13:00:00 10.6 6 Sudoeste 12 Sudoeste 0 984.8 -0.7 71
2019-11-21 12:00:00 8.3 4 Sur 6 Este 0 985.3 0 80
2019-11-21 11:00:00 6.4 2 Sudoeste 6 Sudoeste 0 985.6 0.7 85
2019-11-21 10:00:00 5.1 3 Sudoeste 5 Sudoeste 0 985.5 0.8 91
2019-11-21 09:00:00 3.4 0 Calma 5 Sur 0 985.3 1 98
2019-11-21 08:00:00 2.4 3 Sudoeste 6 Oeste 0 984.9 0.7 95
2019-11-21 07:00:00 3.2 3 Oeste 10 Oeste 0 984.7 0.2 93
2019-11-21 06:00:00 3.5 5 Sudoeste 7 Sudoeste 0 984.3 -0.3 92
2019-11-21 05:00:00 4.1 4 Este 5 Este 0 984.2 -0.4 88
2019-11-21 04:00:00 4.4 2 Oeste 5 Norte 0 984.5 -0.5 87
2019-11-21 03:00:00 4.1 3 Norte 8 Este 0 984.6 -0.7 88
2019-11-21 02:00:00 4.2 7 Nordeste 14 Nordeste 0 984.6 -1 86
2019-11-21 01:00:00 4.4 10 Nordeste 16 Norte 0 985 -0.6 87
2019-11-21 00:00:00 4.4 8 Nordeste 14 Nordeste 0 985.3 -0.4 88
2019-11-20 23:00:00 5.2 10 Nordeste 14 Nordeste 0 985.6 -0.2 85
2019-11-20 22:00:00 5.4 8 Norte 14 Norte 0 985.6 0 85
2019-11-20 21:00:00 5.8 9 Nordeste 13 Nordeste 0 985.7 0.1 82
2019-11-20 20:00:00 6.4 9 Nordeste 12 Nordeste 0 985.8 0.1 79
2019-11-20 19:00:00 7.6 5 Norte 8 Norte 0 985.6 -0.3 74
2019-11-20 18:00:00 9.4 5 Norte 8 Nordeste 0 985.6 -0.8 68
2019-11-20 17:00:00 11.2 5 Nordeste 9 Nordeste 0 985.7 -1.4 58
2019-11-20 16:00:00 11.8 5 Nordeste 8 Nordeste 0 985.9 -2.3 56
2019-11-20 15:00:00 11.4 4 Este 12 Este 0 986.4 -2.8 56
2019-11-20 14:00:00 10.3 8 Nordeste 13 Nordeste 0 987.1 -2.8 60
2019-11-20 13:00:00 9.1 5 Nordeste 11 Este 0 988.2 -2 63
2019-11-20 12:00:00 7.2 6 Nordeste 14 Este 0 989.2 -1.1 70
2019-11-20 11:00:00 4.9 7 Nordeste 12 Nordeste 0 989.9 -0.2 78
2019-11-20 10:00:00 2.7 3 Nordeste 8 Nordeste 0 990.2 0.4 89
2019-11-20 09:00:00 0.4 4 Sudoeste 7 Este 0 990.3 0.3 94
2019-11-20 08:00:00 -0.3 5 Este 8 Nordeste 0 990.1 -0.1 94
2019-11-20 07:00:00 0.2 7 Nordeste 10 Nordeste 0 989.8 -0.7 93
2019-11-20 06:00:00 0.2 8 Nordeste 12 Nordeste 0 990 -0.7 93
2019-11-20 05:00:00 -0.1 3 Norte 11 Nordeste 0 990.2 -0.9 93
2019-11-20 04:00:00 0.4 6 Nordeste 12 Norte 0 990.5 -1.2 92
2019-11-20 03:00:00 1 9 Nordeste 13 Nordeste 0 990.7 -1.1 92
2019-11-20 02:00:00 1 7 Norte 13 Nordeste 0 991.1 -1.1 91
2019-11-20 01:00:00 1.4 8 Nordeste 17 Norte 0 991.7 -0.4 90
2019-11-20 00:00:00 1.7 10 Nordeste 15 Nordeste 0 991.8 0 89
2019-11-19 23:00:00 2.2 8 Nordeste 14 Norte 0 992.2 0.5 87
2019-11-19 22:00:00 2.6 8 Nordeste 14 Nordeste 0 992.1 0.9 85
2019-11-19 21:00:00 3.3 8 Norte 13 Nordeste 0 991.8 0.6 84
2019-11-19 20:00:00 4.3 8 Nordeste 12 Nordeste 0 991.7 0.6 82
2019-11-19 19:00:00 5.3 6 Nordeste 9 Nordeste 0 991.2 -0.1 80
2019-11-19 18:00:00 7.3 2 Sudeste 5 Sudeste 0 991.2 -0.3 71
2019-11-19 17:00:00 10.3 2 Sur 11 Sudoeste 0 991.1 -0.9 58
2019-11-19 16:00:00 10.7 6 Sudoeste 16 Sudoeste 0 991.3 -1.2 54
2019-11-19 15:00:00 10.2 9 Sudoeste 15 Sudoeste 0 991.5 -1.8 52
2019-11-19 14:00:00 9 6 Sudoeste 14 Oeste 0 992 -1.6 62
2019-11-19 13:00:00 7.7 8 Sur 15 Sur 0 992.5 -1.3 67
2019-11-19 12:00:00 6.5 6 Oeste 13 Oeste 0 993.3 -0.1 72
2019-11-19 11:00:00 4.4 3 Sur 11 Este 0 993.6 0.8 81
2019-11-19 10:00:00 1.8 8 Nordeste 14 Nordeste 0 993.8 1.4 90
2019-11-19 09:00:00 -0.1 4 Nordeste 11 Nordeste 0 993.4 -- 95
2019-11-19 08:00:00 -1.5 7 Nordeste 12 Nordeste 0 992.8 0.6 96
2019-11-19 07:00:00 -1.4 4 Norte 9 Nordeste 0 992.4 0.2 95
2019-11-19 06:00:00 -1 7 Nordeste 10 Nordeste 0 -- -- 95
2019-11-19 05:00:00 -0.8 5 Nordeste 8 Nordeste 0 992.2 0.2 94
2019-11-19 04:00:00 -0.4 6 Nordeste 8 Nordeste 0 992.2 0.2 93
2019-11-19 03:00:00 -0.1 4 Norte 8 Sudoeste 0 992.2 0.4 92
2019-11-19 02:00:00 0.7 4 Sudoeste 11 Sudoeste 0 992 0.3 91
2019-11-19 01:00:00 2.1 4 Sudoeste 10 Sudoeste 0 992 1.1 86
2019-11-19 00:00:00 2.5 4 Sudoeste 11 Sudoeste 0 991.8 1.5 83
2019-11-18 23:00:00 3.7 6 Sudoeste 18 Sudoeste 0 991.7 2 79
2019-11-18 22:00:00 4.5 8 Sudoeste 21 Sudoeste 0 990.9 1.5 77
2019-11-18 21:00:00 5.1 10 Sudoeste 17 Sudoeste 0 990.3 1.8 77
2019-11-18 20:00:00 5.9 8 Sudoeste 14 Sudoeste 0 989.7 1.5 74
2019-11-18 19:00:00 7.5 8 Sudoeste 15 Oeste 0 989.4 1.5 67
2019-11-18 18:00:00 9.7 8 Oeste 13 Oeste 0 988.5 0.5 70
2019-11-18 17:00:00 11.8 2 Sur 13 Sudoeste 0 988.2 0.1 63
2019-11-18 16:00:00 12.1 8 Sudoeste 14 Sudoeste 0 987.9 -0.2 63
2019-11-18 15:00:00 11.1 5 Sudoeste 13 Oeste 0 988 0 70
2019-11-18 14:00:00 9.2 5 Norte 9 Norte 0 988.1 0.3 77
2019-11-18 13:00:00 8.4 3 Oeste 10 Noroeste 0 988.1 1.1 81
2019-11-18 12:00:00 8 3 Sudeste 7 Este 0 988 1.5 86
2019-11-18 11:00:00 6.7 2 Este 7 Nordeste 0 987.8 2 94
2019-11-18 10:00:00 5.6 3 Nordeste 10 Nordeste 0 987 1.7 97
2019-11-18 09:00:00 4.9 4 Nordeste 7 Norte 0 986.5 1.5 98
2019-11-18 08:00:00 4.9 3 Sudoeste 7 Sudoeste 0 985.8 0.9 98
2019-11-18 07:00:00 4.4 3 Sur 10 Sudoeste 0 985.3 0.6 98
2019-11-18 06:00:00 4.3 6 Oeste 12 Oeste 0 985 0.5 97
2019-11-18 05:00:00 4.6 5 Sur 13 Oeste 0 984.9 0.4 95
2019-11-18 04:00:00 5.8 7 Oeste 17 Noroeste 0 984.7 0.2 96
2019-11-18 03:00:00 4.4 4 Noroeste 8 Noroeste 0 984.5 -0.3 95
2019-11-18 02:00:00 5.9 3 Oeste 5 Oeste 0 984.5 -0.6 94
2019-11-18 01:00:00 6.7 2 Este 7 Sudoeste 0 984.5 -0.7 95
2019-11-18 00:00:00 7.1 4 Oeste 9 Oeste 0 984.8 -0.3 94
2019-11-17 23:00:00 6.9 4 Oeste 6 Noroeste 0 985.1 -0.1 95
2019-11-17 22:00:00 7.2 4 Sur 6 Sur 0 985.2 0.5 93
2019-11-17 21:00:00 7.4 2 Noroeste 10 Sudoeste 0 985.1 0.1 91
2019-11-17 20:00:00 7.4 4 Sudoeste 10 Sudoeste 0 985.2 0.4 90
2019-11-17 19:00:00 9.1 6 Sudoeste 14 Sudoeste 0 984.7 0.2 78
2019-11-17 18:00:00 10.8 8 Oeste 15 Oeste 0 985 0.1 68
2019-11-17 17:00:00 11.6 4 Oeste 14 Oeste 0 984.8 -0.6 63
2019-11-17 16:00:00 11.9 9 Oeste 24 Noroeste 0 984.5 -1.4 60
2019-11-17 15:00:00 12.9 18 Oeste 32 Oeste 0 984.9 -1.8 55
2019-11-17 14:00:00 11.8 18 Oeste 32 Oeste 0 985.4 -1.6 56
2019-11-17 13:00:00 11.8 17 Oeste 33 Oeste 0 985.9 -1.4 55
2019-11-17 12:00:00 9.9 7 Noroeste 24 Noroeste 0 986.7 -0.6 69
2019-11-17 11:00:00 7.5 5 Oeste 10 Sudoeste 0 987 0 76
2019-11-17 10:00:00 5.9 3 Nordeste 8 Sudoeste 0 987.3 0.3 82
2019-11-17 09:00:00 3.4 5 Sudoeste 12 Sudoeste 0 987.3 0.5 89
2019-11-17 08:00:00 2 4 Sudoeste 12 Sudoeste 0 987 0.1 91
2019-11-17 07:00:00 2.2 4 Sudoeste 11 Sudoeste 0 987 -0.2 90
2019-11-17 06:00:00 2.3 5 Sudoeste 11 Oeste 0 986.8 -0.7 91
2019-11-17 05:00:00 2.1 5 Sur 13 Sudoeste 0 986.9 -0.8 90
2019-11-17 04:00:00 2.1 6 Sur 10 Sudoeste 0 987.2 -0.8 91
2019-11-17 03:00:00 2.1 4 Sudoeste 9 Sudoeste 0 987.5 -0.9 90
2019-11-17 02:00:00 2.8 7 Sudoeste 11 Sudoeste 0 987.7 -0.8 91
2019-11-17 01:00:00 2.6 4 Oeste 12 Sudoeste 0 988 -0.5 92
2019-11-17 00:00:00 2.9 4 Sudoeste 9 Sudoeste 0 988.4 0.1 90
2019-11-16 23:00:00 3.8 8 Sudoeste 12 Oeste 0 988.5 0.4 92
2019-11-16 22:00:00 3.8 5 Sudoeste 10 Sudoeste 0 988.5 0.1 89
2019-11-16 21:00:00 5.5 8 Sudoeste 27 Oeste 0 988.3 -0.5 82
2019-11-16 20:00:00 5.8 15 Oeste 24 Oeste 0 988.1 -0.7 83
2019-11-16 19:00:00 6.2 11 Oeste 19 Noroeste 0 988.4 -0.6 81
2019-11-16 18:00:00 6.9 10 Oeste 16 Oeste 0 988.8 -0.1 77
2019-11-16 17:00:00 8.1 8 Oeste 26 Oeste 0 988.8 -0.3 70
2019-11-16 16:00:00 8.6 13 Oeste 24 Oeste 0 989 -0.5 66
2019-11-16 15:00:00 8.7 11 Oeste 20 Noroeste 0 988.9 -1.1 65
2019-11-16 14:00:00 8 8 Oeste 13 Sudoeste 0 989.1 -0.7 70
2019-11-16 13:00:00 6.3 5 Sudeste 10 Sudeste 0 989.5 -0.2 75
2019-11-16 12:00:00 5.4 4 Oeste 9 Oeste 0 990 1.2 79
2019-11-16 11:00:00 5 6 Sur 9 Sur 0 989.8 1.8 85
2019-11-16 10:00:00 4.1 5 Sur 9 Sur 0 989.7 2.7 90
2019-11-16 09:00:00 2.8 4 Noroeste 8 Noroeste 0 988.8 2.7 95
2019-11-16 08:00:00 2 5 Oeste 10 Oeste 0 988 2.7 96
2019-11-16 07:00:00 1.5 4 Nordeste 11 Norte 0 987 2.2 97
2019-11-16 06:00:00 0.3 3 Norte 11 Nordeste 0 986.1 1.9 96
2019-11-16 05:00:00 0.4 7 Nordeste 10 Nordeste 0 985.3 1.7 95
2019-11-16 04:00:00 1 5 Noroeste 9 Oeste 0 984.8 2.1 93
2019-11-16 03:00:00 1.8 3 Oeste 12 Sudoeste 0 984.2 1.7 92
2019-11-16 02:00:00 2.9 10 Sudoeste 15 Sudoeste 0 983.6 1.5 90
2019-11-16 01:00:00 3.3 9 Oeste 20 Oeste 0 982.7 1.4 89
2019-11-16 00:00:00 3.5 9 Oeste 19 Oeste 0 982.5 2.2 88
2019-11-15 23:00:00 4.8 10 Oeste 24 Oeste 0 982.1 2.1 84
2019-11-15 22:00:00 5.4 9 Oeste 25 Noroeste 0 981.3 1.9 82
2019-11-15 21:00:00 5.6 14 Oeste 23 Oeste 0 980.3 1.7 81
2019-11-15 20:00:00 6.5 12 Oeste 28 Oeste 0 980 2 77
2019-11-15 19:00:00 8.2 15 Oeste 28 Oeste 0 979.4 1.8 70
2019-11-15 18:00:00 8.9 16 Oeste 33 Oeste 0 978.6 1.2 69
2019-11-15 17:00:00 8.9 3 Sur 7 Sur 0 978 0.2 71
2019-11-15 16:00:00 9.3 0 Calma 5 Oeste 0 977.6 -0.6 68
2019-11-15 15:00:00 9.1 4 Oeste 8 Oeste 0 977.4 -1.5 66
2019-11-15 14:00:00 8.4 3 Sudoeste 10 Noroeste 0 977.8 -1.4 70
2019-11-15 13:00:00 8.1 4 Sudoeste 10 Oeste 0 978.2 -0.6 74
2019-11-15 12:00:00 7.4 3 Sur 13 Sudoeste 0 978.9 0.2 76
2019-11-15 11:00:00 6.8 6 Sudoeste 12 Sudoeste 0 979.2 1.2 80
2019-11-15 10:00:00 5.2 5 Sudoeste 11 Sur 0 978.8 1.5 90
2019-11-15 09:00:00 2 3 Sudoeste 9 Oeste 0 978.7 1.4 97
2019-11-15 08:00:00 0.8 3 Noroeste 5 Sur 0 978 1.2 95
2019-11-15 07:00:00 1.6 4 Sur 12 Noroeste 0 977.3 0.8 95
2019-11-15 06:00:00 2.2 3 Noroeste 8 Sudoeste 0 977.3 0.8 95
2019-11-15 05:00:00 2.2 0 Calma 6 Sudoeste 0 976.8 0.5 94
2019-11-15 04:00:00 3.3 4 Sur 8 Sudoeste 0 976.5 0.5 92
2019-11-15 03:00:00 4 6 Sudoeste 8 Sudoeste 0 976.5 1 93
2019-11-15 02:00:00 4 3 Sudoeste 5 Sudoeste 0 976.3 0.9 92
2019-11-15 01:00:00 3.9 2 Noroeste 8 Nordeste 0 976 1 91
2019-11-15 00:00:00 3.7 6 Norte 10 Nordeste 0 975.5 1 91